createdAt,value
2024-01-08T00:01:33.113Z,-23.47
2024-01-08T00:04:39.992Z,-23.71
2024-01-08T00:07:46.074Z,-23.71
2024-01-08T00:10:53.354Z,-23.66
2024-01-08T00:13:59.725Z,-23.54
2024-01-08T00:17:06.696Z,-23.69
2024-01-08T00:20:12.221Z,-23.57
2024-01-08T00:23:25.607Z,-23.58
2024-01-08T00:26:32.107Z,-23.55
2024-01-08T00:29:41.291Z,-23.48
2024-01-08T00:32:49.513Z,-23.38
2024-01-08T00:35:57.616Z,-23.28
2024-01-08T00:39:08.399Z,-23.17
2024-01-08T00:42:17.714Z,-22.96
2024-01-08T00:45:24.613Z,-22.81
2024-01-08T00:48:31.907Z,-22.78
2024-01-08T00:51:41.937Z,-22.65
2024-01-08T00:54:48.198Z,-22.44
2024-01-08T00:58:01.651Z,-22.47
2024-01-08T01:01:08.142Z,-22.43
2024-01-08T01:04:13.082Z,-22.22
2024-01-08T01:07:16.783Z,-21.85
2024-01-08T01:10:23.994Z,-21.74
2024-01-08T01:13:37.246Z,-21.19
2024-01-08T01:16:58.613Z,-21.20
2024-01-08T01:34:13.944Z,-18.79
2024-01-08T01:41:03.813Z,-18.25
2024-01-08T01:48:08.034Z,-18.28
2024-01-08T01:51:49.336Z,-18.77
2024-01-08T01:58:29.234Z,-19.02
2024-01-08T02:01:35.156Z,-19.38
2024-01-08T02:04:40.579Z,-20.33
2024-01-08T02:07:46.026Z,-20.74
2024-01-08T02:10:48.994Z,-21.26
2024-01-08T02:13:52.954Z,-21.78
2024-01-08T02:16:56.649Z,-21.92
2024-01-08T02:20:00.375Z,-20.91
2024-01-08T02:23:08.647Z,-21.06
2024-01-08T02:26:15.868Z,-21.22
2024-01-08T02:29:21.659Z,-21.19
2024-01-08T02:32:25.185Z,-20.78
2024-01-08T02:35:28.622Z,-20.92
2024-01-08T02:38:40.617Z,-20.74
2024-01-08T02:41:58.822Z,-20.45
2024-01-08T02:45:10.848Z,-19.83
2024-01-08T02:48:17.875Z,-19.70
2024-01-08T02:55:05.078Z,-19.42
2024-01-08T03:01:45.920Z,-18.46
2024-01-08T03:05:01.120Z,-18.52
2024-01-08T03:08:22.309Z,-18.44
2024-01-08T03:11:47.908Z,-18.29
2024-01-08T03:14:58.182Z,-18.39
2024-01-08T03:22:04.674Z,-17.35
2024-01-08T03:25:15.440Z,-17.00
2024-01-08T03:28:21.361Z,-16.99
2024-01-08T03:31:35.353Z,-16.58
2024-01-08T03:34:52.740Z,-16.40
2024-01-08T03:41:45.637Z,-15.65
2024-01-08T03:45:10.574Z,-15.31
2024-01-08T03:48:22.182Z,-15.09
2024-01-08T03:51:34.058Z,-14.82
2024-01-08T03:54:47.914Z,-14.77
2024-01-08T03:58:05.852Z,-14.71
2024-01-08T04:01:28.911Z,-14.63
2024-01-08T04:04:55.000Z,-14.60
2024-01-08T04:08:08.606Z,-14.64
2024-01-08T04:11:19.200Z,-14.57
2024-01-08T04:14:35.819Z,-14.46
2024-01-08T04:17:45.820Z,-14.30
2024-01-08T04:20:54.966Z,-14.16
2024-01-08T04:24:02.765Z,-14.06
2024-01-08T04:27:12.193Z,-13.88
2024-01-08T04:30:18.580Z,-13.78
2024-01-08T04:33:24.812Z,-13.58
2024-01-08T04:36:31.395Z,-13.42
2024-01-08T04:39:37.756Z,-13.26
2024-01-08T04:42:44.035Z,-13.26
2024-01-08T04:45:49.989Z,-13.04
2024-01-08T04:48:56.524Z,-13.06
2024-01-08T04:52:02.839Z,-13.04
2024-01-08T04:55:09.601Z,-12.78
2024-01-08T04:58:15.974Z,-12.52
2024-01-08T05:01:22.393Z,-12.29
2024-01-08T05:04:28.406Z,-12.18
2024-01-08T05:07:35.401Z,-11.88
2024-01-08T05:10:41.762Z,-11.64
2024-01-08T05:13:48.021Z,-11.32
2024-01-08T05:16:54.308Z,-11.01
2024-01-08T05:19:58.725Z,-10.87
2024-01-08T05:23:05.689Z,-10.67
2024-01-08T05:26:10.737Z,-10.54
2024-01-08T05:29:14.624Z,-10.36
2024-01-08T05:32:19.708Z,-10.19
2024-01-08T05:35:25.500Z,-10.02
2024-01-08T05:38:31.755Z,-9.98
2024-01-08T05:41:41.767Z,-9.80
2024-01-08T05:44:47.831Z,-9.75
2024-01-08T05:47:56.655Z,-9.64
2024-01-08T05:51:01.303Z,-9.54
2024-01-08T05:54:05.786Z,-9.38
2024-01-08T05:57:09.971Z,-9.29
2024-01-08T06:00:16.609Z,-9.11
2024-01-08T06:03:23.401Z,-8.93
2024-01-08T06:06:29.280Z,-8.66
2024-01-08T06:09:35.823Z,-8.26
2024-01-08T06:12:41.470Z,-8.02
2024-01-08T06:15:48.341Z,-7.84
2024-01-08T06:18:54.276Z,-7.67
2024-01-08T06:22:00.786Z,-7.59
2024-01-08T06:25:07.162Z,-7.46
2024-01-08T06:28:12.813Z,-7.31
2024-01-08T06:31:18.691Z,-7.21
2024-01-08T06:34:24.701Z,-7.22
2024-01-08T06:37:30.066Z,-7.22
2024-01-08T06:40:36.356Z,-7.23
2024-01-08T06:43:42.912Z,-7.31
2024-01-08T06:47:01.945Z,-7.28
2024-01-08T06:50:07.561Z,-7.22
2024-01-08T06:53:14.236Z,-7.21
2024-01-08T06:56:18.135Z,-7.22
2024-01-08T06:59:21.630Z,-7.21
2024-01-08T07:02:24.796Z,-7.19
2024-01-08T07:05:28.458Z,-7.18
2024-01-08T07:08:33.565Z,-7.08
2024-01-08T07:11:39.313Z,-7.05
2024-01-08T07:14:46.999Z,-7.01
2024-01-08T07:17:51.042Z,-6.95
2024-01-08T07:20:54.220Z,-6.97
2024-01-08T07:23:57.845Z,-7.04
2024-01-08T07:27:00.830Z,-7.08
2024-01-08T07:30:06.892Z,-7.21
2024-01-08T07:33:13.128Z,-7.38
2024-01-08T07:36:19.441Z,-7.50
2024-01-08T07:39:25.274Z,-7.53
2024-01-08T07:42:31.326Z,-7.59
2024-01-08T07:45:38.127Z,-7.70
2024-01-08T07:48:44.115Z,-7.76
2024-01-08T07:51:50.540Z,-7.79
2024-01-08T07:54:57.538Z,-7.79
2024-01-08T07:58:04.113Z,-7.87
2024-01-08T08:01:15.303Z,-7.97
2024-01-08T08:04:21.632Z,-8.05
2024-01-08T08:07:27.926Z,-8.12
2024-01-08T08:10:34.693Z,-8.28
2024-01-08T08:13:41.276Z,-8.33
2024-01-08T08:16:47.332Z,-8.40
2024-01-08T08:19:53.825Z,-8.54
2024-01-08T08:23:01.525Z,-8.67
2024-01-08T08:26:08.318Z,-8.87
2024-01-08T08:29:15.513Z,-9.07
2024-01-08T08:32:19.779Z,-9.28
2024-01-08T08:39:09.347Z,-9.66
2024-01-08T08:42:17.604Z,-9.80
2024-01-08T08:45:23.649Z,-9.94
2024-01-08T08:48:32.291Z,-10.09
2024-01-08T08:51:39.820Z,-10.17
2024-01-08T08:54:44.017Z,-10.30
2024-01-08T09:05:25.723Z,-10.17
2024-01-08T09:08:39.560Z,-10.09
2024-01-08T09:15:14.224Z,-10.07
2024-01-08T09:18:21.648Z,-10.07
2024-01-08T09:21:25.574Z,-10.08
2024-01-08T09:24:31.543Z,-10.11
2024-01-08T09:27:39.913Z,-10.12
2024-01-08T09:30:43.657Z,-10.15
2024-01-08T09:33:47.821Z,-10.17
2024-01-08T09:36:52.561Z,-10.18
2024-01-08T09:39:56.050Z,-10.15
2024-01-08T09:43:06.097Z,-10.19
2024-01-08T09:50:41.207Z,-10.25
2024-01-08T09:54:06.233Z,-10.37
2024-01-08T10:00:45.058Z,-10.57
2024-01-08T10:04:17.959Z,-10.78
2024-01-08T10:07:25.577Z,-10.94
2024-01-08T10:10:39.719Z,-11.15
2024-01-08T10:17:16.582Z,-11.43
2024-01-08T10:20:22.041Z,-11.52
2024-01-08T10:23:33.980Z,-11.63
2024-01-08T10:31:05.440Z,-11.74
2024-01-08T10:34:40.557Z,-11.84
2024-01-08T10:37:50.895Z,-11.99
2024-01-08T10:40:58.039Z,-12.07
2024-01-08T10:44:02.162Z,-12.11
2024-01-08T10:47:13.519Z,-12.16
2024-01-08T10:50:33.496Z,-12.25
2024-01-08T10:53:55.368Z,-12.32
2024-01-08T10:57:02.528Z,-12.43
2024-01-08T11:00:14.967Z,-12.53
2024-01-08T11:03:19.172Z,-12.57
2024-01-08T11:06:25.580Z,-12.60
2024-01-08T11:13:00.529Z,-12.66
2024-01-08T11:16:09.941Z,-12.64
2024-01-08T11:19:24.600Z,-12.66
2024-01-08T11:22:30.571Z,-12.70
2024-01-08T11:25:34.787Z,-12.77
2024-01-08T11:28:43.470Z,-12.88
2024-01-08T11:31:50.558Z,-12.88
2024-01-08T11:34:59.463Z,-12.94
2024-01-08T11:38:26.380Z,-12.89
2024-01-08T11:41:35.379Z,-12.89
2024-01-08T11:44:42.110Z,-12.87
2024-01-08T11:47:49.112Z,-12.89
2024-01-08T11:50:55.549Z,-12.89
2024-01-08T11:54:05.945Z,-12.87
2024-01-08T11:57:11.356Z,-12.87
2024-01-08T12:00:17.544Z,-12.81
2024-01-08T12:03:25.724Z,-12.85
2024-01-08T12:06:31.019Z,-12.87
2024-01-08T12:13:13.996Z,-12.91
2024-01-08T12:16:19.102Z,-12.92
2024-01-08T12:19:34.955Z,-12.91
2024-01-08T12:22:43.424Z,-13.01
2024-01-08T12:25:57.168Z,-13.04
2024-01-08T12:29:04.264Z,-13.06
2024-01-08T12:32:12.361Z,-13.09
2024-01-08T12:35:21.233Z,-13.11
2024-01-08T12:38:25.393Z,-13.15
2024-01-08T12:41:37.195Z,-13.15
2024-01-08T12:44:42.821Z,-13.16
2024-01-08T12:48:02.187Z,-13.15
2024-01-08T12:51:15.774Z,-13.15
2024-01-08T12:54:21.040Z,-13.19
2024-01-08T12:57:32.046Z,-13.20
2024-01-08T13:18:57.484Z,-12.99
2024-01-08T13:25:55.816Z,-13.06
2024-01-08T13:36:39.233Z,-13.02
2024-01-08T13:43:15.027Z,-13.05
2024-01-08T13:46:19.275Z,-13.04
2024-01-08T13:49:24.237Z,-13.08
2024-01-08T13:52:54.696Z,-13.09
2024-01-08T13:56:23.200Z,-13.13
2024-01-08T13:59:40.184Z,-13.18
2024-01-08T14:03:18.226Z,-13.26
2024-01-08T14:06:22.243Z,-13.39
2024-01-08T14:09:26.315Z,-13.44
2024-01-08T14:22:46.701Z,-13.72
2024-01-08T14:32:49.530Z,-13.96
2024-01-08T14:39:38.263Z,-13.99
2024-01-08T14:42:45.780Z,-14.05
2024-01-08T14:45:52.411Z,-14.18
2024-01-08T14:49:23.588Z,-14.29
2024-01-08T14:56:22.929Z,-14.40
2024-01-08T15:10:52.273Z,-14.41
2024-01-08T15:14:11.588Z,-14.41
2024-01-08T15:17:33.828Z,-14.44
2024-01-08T15:27:56.433Z,-14.46
2024-01-08T15:35:24.508Z,-14.46
2024-01-08T15:42:09.269Z,-14.51
2024-01-08T15:49:10.616Z,-14.57
2024-01-08T15:55:50.322Z,-14.68
2024-01-08T15:59:04.330Z,-14.67
2024-01-08T16:02:21.122Z,-14.71
2024-01-08T16:05:57.997Z,-14.74
2024-01-08T16:09:41.360Z,-14.78
2024-01-08T16:12:58.908Z,-14.77
2024-01-08T16:16:28.337Z,-14.81
2024-01-08T16:19:48.925Z,-14.82
2024-01-08T16:26:28.109Z,-15.03
2024-01-08T16:33:30.369Z,-15.07
2024-01-08T16:40:24.994Z,-15.13
2024-01-08T16:43:40.161Z,-15.16
2024-01-08T16:46:58.497Z,-15.22
2024-01-08T17:09:19.681Z,-15.30
2024-01-08T17:16:27.690Z,-15.28
2024-01-08T17:20:07.646Z,-15.33
2024-01-08T17:27:04.145Z,-15.50
2024-01-08T17:30:38.244Z,-15.58
2024-01-08T17:34:07.947Z,-15.65
2024-01-08T17:37:31.901Z,-15.69
2024-01-08T17:44:17.971Z,-15.79
2024-01-08T17:47:31.849Z,-15.87
2024-01-08T17:50:54.021Z,-15.93
2024-01-08T17:54:29.956Z,-15.99
2024-01-08T18:01:42.839Z,-16.09
2024-01-08T18:08:37.105Z,-16.17
2024-01-08T18:16:01.183Z,-16.37
2024-01-08T18:27:02.209Z,-16.48
2024-01-08T18:31:03.553Z,-16.49
2024-01-08T18:34:34.563Z,-16.56
2024-01-08T18:38:31.542Z,-16.61
2024-01-08T18:52:54.767Z,-16.72
2024-01-08T18:56:21.424Z,-16.75
2024-01-08T18:59:42.754Z,-16.79
2024-01-08T19:03:18.154Z,-16.83
2024-01-08T19:14:10.673Z,-16.97
2024-01-08T19:25:30.615Z,-17.21
2024-01-08T19:40:13.220Z,-17.55
2024-01-08T19:51:13.351Z,-17.69
2024-01-08T19:58:31.852Z,-17.77
2024-01-08T20:02:02.051Z,-17.82
2024-01-08T20:09:06.252Z,-17.90
2024-01-08T20:12:29.616Z,-17.91
2024-01-08T20:19:35.548Z,-17.94
2024-01-08T20:26:31.081Z,-18.06
2024-01-08T20:29:43.163Z,-18.06
2024-01-08T20:33:08.525Z,-18.06
2024-01-08T20:36:25.926Z,-18.07
2024-01-08T20:39:57.745Z,-18.10
2024-01-08T20:43:10.679Z,-18.14
2024-01-08T20:46:25.150Z,-18.18
2024-01-08T20:49:43.404Z,-18.28
2024-01-08T20:53:05.227Z,-18.35
2024-01-08T21:00:01.978Z,-18.44
2024-01-08T21:03:18.468Z,-18.48
2024-01-08T21:06:53.479Z,-18.53
2024-01-08T21:14:36.480Z,-18.59
2024-01-08T21:18:18.102Z,-18.60
2024-01-08T21:21:27.930Z,-18.73
2024-01-08T21:24:34.522Z,-18.79
2024-01-08T21:27:48.356Z,-18.83
2024-01-08T21:31:10.767Z,-18.87
2024-01-08T21:34:28.295Z,-18.88
2024-01-08T21:37:40.074Z,-18.91
2024-01-08T21:40:46.805Z,-19.11
2024-01-08T21:44:03.052Z,-19.42
2024-01-08T21:47:11.786Z,-19.73
2024-01-08T21:50:22.631Z,-20.05
2024-01-08T21:53:32.651Z,-20.46
2024-01-08T21:56:40.577Z,-20.75
2024-01-08T21:59:52.323Z,-20.89
2024-01-08T22:03:04.884Z,-20.99
2024-01-08T22:06:14.961Z,-21.01
2024-01-08T22:09:27.749Z,-21.08
2024-01-08T22:12:43.049Z,-21.15
2024-01-08T22:19:27.642Z,-21.26
2024-01-08T22:22:37.350Z,-21.29
2024-01-08T22:25:47.743Z,-21.30
2024-01-08T22:29:01.049Z,-21.34
2024-01-08T22:43:02.000Z,-21.40
2024-01-08T22:46:06.406Z,-21.44
2024-01-08T22:49:10.428Z,-21.51
2024-01-08T22:52:14.677Z,-21.55
2024-01-08T22:55:17.941Z,-21.61
2024-01-08T22:58:22.098Z,-21.60
2024-01-08T23:01:25.624Z,-21.55
2024-01-08T23:04:29.763Z,-21.53
2024-01-08T23:07:32.958Z,-21.57
2024-01-08T23:10:38.727Z,-21.57
2024-01-08T23:13:44.042Z,-21.58
2024-01-08T23:16:50.842Z,-21.68
2024-01-08T23:19:56.587Z,-21.70
2024-01-08T23:23:04.192Z,-21.83
2024-01-08T23:26:10.275Z,-21.88
2024-01-08T23:29:16.752Z,-21.89
2024-01-08T23:32:22.382Z,-21.98
2024-01-08T23:35:28.845Z,-22.08
2024-01-08T23:38:35.477Z,-22.13
2024-01-08T23:41:41.948Z,-22.06
2024-01-08T23:44:48.024Z,-22.05
2024-01-08T23:47:54.304Z,-22.06
2024-01-08T23:50:59.156Z,-21.98
2024-01-08T23:54:04.708Z,-22.06
2024-01-08T23:57:11.678Z,-22.14
